Terminal Aerodrome Forecast
Issued by NWS

Current Version | Previous Version | Text Only | Print | Product List | Glossary On
Versions: 1 2 3 4 5 6 7 8 9 10 11 12 13 14 15
524
FTUS46 KSEW 161124
TAFHQM
TAF
KHQM 161124Z 1612/1712 07008KT P6SM SCT100 OVC150
     FM162100 10014G22KT P6SM SCT040 OVC060
     FM170900 11012G18KT P6SM -RA BKN035 OVC050=

USA.gov is the U.S. government's official web portal to all federal, state and local government web resources and services.